createdAt,value
2019-01-10T00:00:17.141Z,1012.26
2019-01-10T00:01:17.116Z,1012.23
2019-01-10T00:02:17.089Z,1012.24
2019-01-10T00:03:17.072Z,1012.28
2019-01-10T00:04:17.049Z,1012.30
2019-01-10T00:05:17.021Z,1012.31
2019-01-10T00:06:16.999Z,1012.32
2019-01-10T00:07:16.979Z,1012.34
2019-01-10T00:08:16.955Z,1012.35
2019-01-10T00:09:16.930Z,1012.32
2019-01-10T00:10:16.907Z,1012.33
2019-01-10T00:11:16.888Z,1012.36
2019-01-10T00:12:16.861Z,1012.44
2019-01-10T00:13:16.839Z,1012.41
2019-01-10T00:14:16.815Z,1012.42
2019-01-10T00:15:16.796Z,1012.45
2019-01-10T00:16:16.773Z,1012.43
2019-01-10T00:17:16.745Z,1012.48
2019-01-10T00:18:16.723Z,1012.49
2019-01-10T00:19:16.699Z,1012.49
2019-01-10T00:20:16.676Z,1012.53
2019-01-10T00:21:16.659Z,1012.54
2019-01-10T00:22:16.631Z,1012.52
2019-01-10T00:23:16.607Z,1012.53
2019-01-10T00:24:16.583Z,1012.54
2019-01-10T00:25:16.561Z,1012.52
2019-01-10T00:26:16.537Z,1012.58
2019-01-10T00:27:16.529Z,1012.55
2019-01-10T00:28:16.551Z,1012.59
2019-01-10T00:29:16.467Z,1012.58
2019-01-10T00:30:16.444Z,1012.67
2019-01-10T00:31:16.430Z,1012.67
2019-01-10T00:32:16.400Z,1012.65
2019-01-10T00:33:16.376Z,1012.70
2019-01-10T00:34:16.357Z,1012.66
2019-01-10T00:35:16.331Z,1012.70
2019-01-10T00:36:16.306Z,1012.73
2019-01-10T00:37:16.283Z,1012.71
2019-01-10T00:38:16.265Z,1012.75
2019-01-10T00:39:16.237Z,1012.70
2019-01-10T00:40:16.219Z,1012.71
2019-01-10T00:41:16.198Z,1012.72
2019-01-10T00:42:16.174Z,1012.74
2019-01-10T00:43:16.196Z,1012.74
2019-01-10T00:44:16.125Z,1012.75
2019-01-10T00:45:16.104Z,1012.77
2019-01-10T00:46:16.079Z,1012.76
2019-01-10T00:47:16.053Z,1012.75
2019-01-10T00:48:16.029Z,1012.81
2019-01-10T00:49:16.009Z,1012.81
2019-01-10T00:50:15.985Z,1012.79
2019-01-10T00:51:15.961Z,1012.79
2019-01-10T00:52:15.935Z,1012.87
2019-01-10T00:53:15.921Z,1012.86
2019-01-10T00:54:15.891Z,1012.89
2019-01-10T00:55:15.868Z,1012.89
2019-01-10T00:56:15.854Z,1012.91
2019-01-10T00:57:15.825Z,1012.91
2019-01-10T00:58:15.799Z,1012.88
2019-01-10T00:59:15.777Z,1012.91
2019-01-10T01:00:15.751Z,1012.90
2019-01-10T01:01:15.730Z,1012.87
2019-01-10T01:02:15.705Z,1012.94
2019-01-10T01:03:15.683Z,1012.96
2019-01-10T01:04:15.657Z,1012.96
2019-01-10T01:05:15.635Z,1012.95
2019-01-10T01:06:15.884Z,1012.90
2019-01-10T01:07:15.593Z,1013.00
2019-01-10T01:08:15.569Z,1013.01
2019-01-10T01:09:15.544Z,1013.04
2019-01-10T01:10:15.522Z,1013.07
2019-01-10T01:11:15.496Z,1013.08
2019-01-10T01:12:15.473Z,1013.10
2019-01-10T01:13:15.453Z,1013.13
2019-01-10T01:14:15.429Z,1013.11
2019-01-10T01:15:15.402Z,1013.11
2019-01-10T01:16:15.385Z,1013.16
2019-01-10T01:17:15.945Z,1013.11
2019-01-10T01:18:15.336Z,1013.21
2019-01-10T01:19:15.309Z,1013.23
2019-01-10T01:20:15.288Z,1013.21
2019-01-10T01:21:15.268Z,1013.22
2019-01-10T01:22:15.246Z,1013.27
2019-01-10T01:23:15.224Z,1013.30
2019-01-10T01:24:15.195Z,1013.29
2019-01-10T01:25:15.168Z,1013.34
2019-01-10T01:26:15.153Z,1013.32
2019-01-10T01:27:15.124Z,1013.34
2019-01-10T01:28:15.102Z,1013.34
2019-01-10T01:29:15.079Z,1013.34
2019-01-10T01:30:15.104Z,1013.33
2019-01-10T01:31:15.031Z,1013.32
2019-01-10T01:32:15.008Z,1013.36
2019-01-10T01:33:14.988Z,1013.35
2019-01-10T01:34:14.962Z,1013.39
2019-01-10T01:35:14.940Z,1013.43
2019-01-10T01:36:14.918Z,1013.39
2019-01-10T01:37:14.895Z,1013.47
2019-01-10T01:38:14.869Z,1013.49
2019-01-10T01:39:14.849Z,1013.54
2019-01-10T01:40:14.826Z,1013.52
2019-01-10T01:41:14.801Z,1013.53
2019-01-10T01:42:14.782Z,1013.53
2019-01-10T01:43:14.751Z,1013.60
2019-01-10T01:44:14.738Z,1013.59
2019-01-10T01:45:14.712Z,1013.64
2019-01-10T01:46:14.686Z,1013.67
2019-01-10T01:47:14.658Z,1013.67
2019-01-10T01:48:14.638Z,1013.70
2019-01-10T01:49:14.612Z,1013.73
2019-01-10T01:50:14.591Z,1013.72
2019-01-10T01:51:14.567Z,1013.74
2019-01-10T01:52:14.540Z,1013.76
2019-01-10T01:53:14.522Z,1013.78
2019-01-10T01:54:14.498Z,1013.77
2019-01-10T01:55:14.474Z,1013.82
2019-01-10T01:56:14.504Z,1013.81
2019-01-10T01:57:14.428Z,1013.85
2019-01-10T01:58:14.404Z,1013.85
2019-01-10T01:59:14.378Z,1013.90
2019-01-10T02:00:14.358Z,1013.87
2019-01-10T02:01:14.340Z,1013.90
2019-01-10T02:02:14.316Z,1013.93
2019-01-10T02:03:14.288Z,1013.97
2019-01-10T02:04:14.268Z,1013.97
2019-01-10T02:05:14.244Z,1013.99
2019-01-10T02:06:14.222Z,1013.97
2019-01-10T02:07:14.194Z,1014.00
2019-01-10T02:08:14.178Z,1014.00
2019-01-10T02:09:14.150Z,1013.99
2019-01-10T02:10:14.128Z,1014.03
2019-01-10T02:11:14.108Z,1014.03
2019-01-10T02:12:14.079Z,1014.07
2019-01-10T02:13:16.901Z,1014.03
2019-01-10T02:14:14.032Z,1014.09
2019-01-10T02:15:14.348Z,1014.05
2019-01-10T02:16:13.992Z,1014.07
2019-01-10T02:17:13.963Z,1014.09
2019-01-10T02:18:13.944Z,1014.12
2019-01-10T02:19:13.918Z,1014.13
2019-01-10T02:20:13.892Z,1014.16
2019-01-10T02:21:13.868Z,1014.16
2019-01-10T02:22:13.846Z,1014.17
2019-01-10T02:23:13.828Z,1014.16
2019-01-10T02:24:13.799Z,1014.14
2019-01-10T02:25:13.782Z,1014.17
2019-01-10T02:26:13.752Z,1014.21
2019-01-10T02:27:13.733Z,1014.20
2019-01-10T02:28:13.706Z,1014.22
2019-01-10T02:29:13.687Z,1014.21
2019-01-10T02:30:13.664Z,1014.20
2019-01-10T02:31:13.636Z,1014.21
2019-01-10T02:32:13.620Z,1014.22
2019-01-10T02:33:13.590Z,1014.25
2019-01-10T02:34:13.566Z,1014.27
2019-01-10T02:35:13.544Z,1014.22
2019-01-10T02:36:13.523Z,1014.25
2019-01-10T02:37:13.502Z,1014.26
2019-01-10T02:38:13.475Z,1014.28
2019-01-10T02:39:13.452Z,1014.31
2019-01-10T02:40:13.434Z,1014.29
2019-01-10T02:41:13.407Z,1014.33
2019-01-10T02:42:13.385Z,1014.34
2019-01-10T02:43:13.357Z,1014.30
2019-01-10T02:44:13.335Z,1014.28
2019-01-10T02:45:13.313Z,1014.29
2019-01-10T02:46:13.287Z,1014.35
2019-01-10T02:47:13.272Z,1014.33
2019-01-10T02:48:13.248Z,1014.40
2019-01-10T02:49:13.219Z,1014.41
2019-01-10T02:50:13.196Z,1014.37
2019-01-10T02:51:13.175Z,1014.34
2019-01-10T02:52:13.147Z,1014.42
2019-01-10T02:53:13.132Z,1014.37
2019-01-10T02:54:13.105Z,1014.39
2019-01-10T02:55:13.081Z,1014.42
2019-01-10T02:56:13.060Z,1014.42
2019-01-10T02:57:13.031Z,1014.44
2019-01-10T02:58:13.013Z,1014.46
2019-01-10T02:59:12.987Z,1014.44
2019-01-10T03:00:13.023Z,1014.46
2019-01-10T03:01:12.940Z,1014.46
2019-01-10T03:02:12.917Z,1014.44
2019-01-10T03:03:12.892Z,1014.44
2019-01-10T03:04:12.873Z,1014.46
2019-01-10T03:05:12.849Z,1014.48
2019-01-10T03:06:12.826Z,1014.44
2019-01-10T03:07:12.800Z,1014.47
2019-01-10T03:08:12.778Z,1014.42
2019-01-10T03:09:12.783Z,1014.44
2019-01-10T03:10:12.735Z,1014.45
2019-01-10T03:11:12.709Z,1014.44
2019-01-10T03:12:12.690Z,1014.44
2019-01-10T03:13:12.661Z,1014.46
2019-01-10T03:14:12.640Z,1014.51
2019-01-10T03:15:12.615Z,1014.50
2019-01-10T03:16:12.596Z,1014.48
2019-01-10T03:17:12.574Z,1014.55
2019-01-10T03:18:12.546Z,1014.50
2019-01-10T03:19:12.527Z,1014.46
2019-01-10T03:20:12.502Z,1014.53
2019-01-10T03:21:12.472Z,1014.51
2019-01-10T03:22:12.449Z,1014.54
2019-01-10T03:23:12.427Z,1014.54
2019-01-10T03:24:12.411Z,1014.53
2019-01-10T03:25:12.381Z,1014.55
2019-01-10T03:26:12.355Z,1014.52
2019-01-10T03:27:12.337Z,1014.55
2019-01-10T03:28:12.311Z,1014.56
2019-01-10T03:29:12.294Z,1014.57
2019-01-10T03:30:12.268Z,1014.55
2019-01-10T03:31:12.251Z,1014.59
2019-01-10T03:32:12.217Z,1014.58
2019-01-10T03:33:12.203Z,1014.61
2019-01-10T03:34:12.176Z,1014.59
2019-01-10T03:35:12.286Z,1014.64
2019-01-10T03:36:12.126Z,1014.63
2019-01-10T03:37:12.105Z,1014.55
2019-01-10T03:38:12.119Z,1014.65
2019-01-10T03:39:12.054Z,1014.61
2019-01-10T03:40:12.033Z,1014.66
2019-01-10T03:41:12.009Z,1014.64
2019-01-10T03:42:11.987Z,1014.65
2019-01-10T03:43:11.963Z,1014.63
2019-01-10T03:44:11.950Z,1014.69
2019-01-10T03:45:11.915Z,1014.65
2019-01-10T03:46:11.895Z,1014.64
2019-01-10T03:47:11.867Z,1014.64
2019-01-10T03:48:11.843Z,1014.70
2019-01-10T03:49:11.822Z,1014.73
2019-01-10T03:50:11.802Z,1014.73
2019-01-10T03:51:11.776Z,1014.69
2019-01-10T03:52:11.754Z,1014.72
2019-01-10T03:53:11.765Z,1014.73
2019-01-10T03:54:11.703Z,1014.74
2019-01-10T03:55:11.676Z,1014.71
2019-01-10T03:56:11.657Z,1014.71
2019-01-10T03:57:11.641Z,1014.78
2019-01-10T03:58:11.613Z,1014.75
2019-01-10T03:59:11.586Z,1014.70
2019-01-10T04:00:11.590Z,1014.73
2019-01-10T04:01:11.543Z,1014.74
2019-01-10T04:02:11.514Z,1014.71
2019-01-10T04:03:11.496Z,1014.71
2019-01-10T04:04:11.473Z,1014.67
2019-01-10T04:05:11.447Z,1014.69
2019-01-10T04:06:11.430Z,1014.73
2019-01-10T04:07:11.399Z,1014.72
2019-01-10T04:08:11.379Z,1014.74
2019-01-10T04:09:11.359Z,1014.74
2019-01-10T04:10:11.341Z,1014.76
2019-01-10T04:11:11.313Z,1014.73
2019-01-10T04:12:11.285Z,1014.76
2019-01-10T04:13:11.260Z,1014.78
2019-01-10T04:14:11.237Z,1014.78
2019-01-10T04:15:11.270Z,1014.79
2019-01-10T04:16:11.203Z,1014.78
2019-01-10T04:17:11.172Z,1014.76
2019-01-10T04:18:11.145Z,1014.81
2019-01-10T04:19:11.205Z,1014.86
2019-01-10T04:20:11.102Z,1014.82
2019-01-10T04:21:16.949Z,1014.88
2019-01-10T04:22:11.052Z,1014.89
2019-01-10T04:23:11.030Z,1014.84
2019-01-10T04:24:11.004Z,1014.87
2019-01-10T04:25:10.984Z,1014.89
2019-01-10T04:26:10.961Z,1014.95
2019-01-10T04:27:10.929Z,1014.93
2019-01-10T04:28:10.916Z,1015.00
2019-01-10T04:29:10.886Z,1015.01
2019-01-10T04:30:10.870Z,1014.98
2019-01-10T04:31:10.842Z,1014.94
2019-01-10T04:32:10.822Z,1014.95
2019-01-10T04:33:10.795Z,1015.00
2019-01-10T04:34:10.772Z,1014.95
2019-01-10T04:35:10.746Z,1014.97
2019-01-10T04:36:10.727Z,1014.96
2019-01-10T04:37:10.700Z,1015.02
2019-01-10T04:38:10.677Z,1014.99
2019-01-10T04:39:10.653Z,1015.02
2019-01-10T04:40:10.635Z,1015.07
2019-01-10T04:41:10.608Z,1015.06
2019-01-10T04:42:10.591Z,1015.06
2019-01-10T04:43:10.561Z,1015.07
2019-01-10T04:44:10.543Z,1015.08
2019-01-10T04:45:10.515Z,1015.08
2019-01-10T04:46:10.494Z,1015.08
2019-01-10T04:47:10.464Z,1015.08
2019-01-10T04:48:10.446Z,1015.09
2019-01-10T04:49:10.419Z,1015.11
2019-01-10T04:50:10.402Z,1015.10
2019-01-10T04:51:10.373Z,1015.06
2019-01-10T04:52:10.354Z,1015.06
2019-01-10T04:53:10.323Z,1015.09
2019-01-10T04:54:10.307Z,1015.12
2019-01-10T04:55:10.280Z,1015.13
2019-01-10T04:56:10.256Z,1015.12
2019-01-10T04:57:10.234Z,1015.17
2019-01-10T04:58:10.214Z,1015.16
2019-01-10T04:59:12.073Z,1015.15
2019-01-10T05:00:10.163Z,1015.14
2019-01-10T05:01:10.146Z,1015.21
2019-01-10T05:02:18.236Z,1015.19
2019-01-10T05:03:10.088Z,1015.18
2019-01-10T05:04:10.069Z,1015.19
2019-01-10T05:05:10.046Z,1015.19
2019-01-10T05:06:10.061Z,1015.26
2019-01-10T05:07:09.997Z,1015.22
2019-01-10T05:08:09.978Z,1015.27
2019-01-10T05:09:09.953Z,1015.25
2019-01-10T05:10:09.928Z,1015.26
2019-01-10T05:11:11.339Z,1015.26
2019-01-10T05:12:09.882Z,1015.32
2019-01-10T05:13:09.856Z,1015.29
2019-01-10T05:14:16.320Z,1015.28
2019-01-10T05:15:09.812Z,1015.29
2019-01-10T05:16:09.804Z,1015.31
2019-01-10T05:17:09.766Z,1015.31
2019-01-10T05:18:09.742Z,1015.33
2019-01-10T05:19:09.718Z,1015.33
2019-01-10T05:20:09.694Z,1015.37
2019-01-10T05:21:09.671Z,1015.35
2019-01-10T05:22:09.654Z,1015.39
2019-01-10T05:23:09.632Z,1015.36
2019-01-10T05:24:09.607Z,1015.39
2019-01-10T05:25:09.582Z,1015.41
2019-01-10T05:26:09.571Z,1015.41
2019-01-10T05:27:09.533Z,1015.45
2019-01-10T05:28:09.505Z,1015.44
2019-01-10T05:29:09.486Z,1015.49
2019-01-10T05:30:09.462Z,1015.53
2019-01-10T05:31:09.435Z,1015.49
2019-01-10T05:32:09.413Z,1015.56
2019-01-10T05:33:09.391Z,1015.55
2019-01-10T05:34:09.366Z,1015.59
2019-01-10T05:35:09.345Z,1015.56
2019-01-10T05:36:09.325Z,1015.54
2019-01-10T05:37:09.301Z,1015.60
2019-01-10T05:38:09.272Z,1015.58
2019-01-10T05:39:09.259Z,1015.58
2019-01-10T05:40:09.225Z,1015.58
2019-01-10T05:41:09.207Z,1015.64
2019-01-10T05:42:09.180Z,1015.65
2019-01-10T05:43:09.155Z,1015.64
2019-01-10T05:44:09.132Z,1015.62
2019-01-10T05:45:09.113Z,1015.65
2019-01-10T05:46:09.086Z,1015.69
2019-01-10T05:47:09.067Z,1015.71
2019-01-10T05:48:09.050Z,1015.74
2019-01-10T05:49:09.018Z,1015.77
2019-01-10T05:50:08.992Z,1015.75
2019-01-10T05:51:08.976Z,1015.77
2019-01-10T05:52:08.948Z,1015.75
2019-01-10T05:53:08.921Z,1015.78
2019-01-10T05:54:08.900Z,1015.77
2019-01-10T05:55:08.874Z,1015.80
2019-01-10T05:56:15.287Z,1015.80
2019-01-10T05:57:08.835Z,1015.82
2019-01-10T05:58:08.807Z,1015.84
2019-01-10T05:59:08.779Z,1015.83
2019-01-10T06:00:08.759Z,1015.86
2019-01-10T06:01:08.733Z,1015.89
2019-01-10T06:02:08.710Z,1015.87
2019-01-10T06:03:08.686Z,1015.88
2019-01-10T06:04:08.662Z,1015.85
2019-01-10T06:05:10.581Z,1015.91
2019-01-10T06:06:08.618Z,1015.94
2019-01-10T06:07:08.596Z,1015.92
2019-01-10T06:08:08.575Z,1015.95
2019-01-10T06:09:08.545Z,1015.92
2019-01-10T06:10:08.530Z,1015.99
2019-01-10T06:11:08.503Z,1016.00
2019-01-10T06:12:08.479Z,1015.98
2019-01-10T06:13:08.457Z,1016.01
2019-01-10T06:14:08.429Z,1016.03
2019-01-10T06:15:08.410Z,1016.05
2019-01-10T06:16:08.391Z,1016.06
2019-01-10T06:17:08.364Z,1016.08
2019-01-10T06:18:08.335Z,1016.10
2019-01-10T06:19:08.312Z,1016.17
2019-01-10T06:20:08.296Z,1016.13
2019-01-10T06:21:08.266Z,1016.06
2019-01-10T06:22:08.239Z,1016.13
2019-01-10T06:23:08.218Z,1016.19
2019-01-10T06:24:08.196Z,1016.18
2019-01-10T06:25:08.176Z,1016.25
2019-01-10T06:26:08.149Z,1016.28
2019-01-10T06:27:08.125Z,1016.28
2019-01-10T06:28:08.101Z,1016.33
2019-01-10T06:29:08.078Z,1016.34
2019-01-10T06:30:08.055Z,1016.35
2019-01-10T06:31:08.031Z,1016.36
2019-01-10T06:32:08.008Z,1016.33
2019-01-10T06:33:07.982Z,1016.35
2019-01-10T06:34:07.961Z,1016.39
2019-01-10T06:35:07.944Z,1016.39
2019-01-10T06:36:07.916Z,1016.33
2019-01-10T06:37:07.895Z,1016.37
2019-01-10T06:38:07.870Z,1016.38
2019-01-10T06:39:07.845Z,1016.35
2019-01-10T06:40:07.821Z,1016.43
2019-01-10T06:41:07.802Z,1016.44
2019-01-10T06:42:07.771Z,1016.42
2019-01-10T06:43:07.748Z,1016.45
2019-01-10T06:44:07.730Z,1016.47
2019-01-10T06:45:07.704Z,1016.47
2019-01-10T06:46:07.676Z,1016.44
2019-01-10T06:47:07.662Z,1016.51
2019-01-10T06:48:07.632Z,1016.53
2019-01-10T06:49:07.610Z,1016.54
2019-01-10T06:50:07.583Z,1016.52
2019-01-10T06:51:07.559Z,1016.58
2019-01-10T06:52:07.597Z,1016.56
2019-01-10T06:53:07.512Z,1016.56
2019-01-10T06:54:07.492Z,1016.57
2019-01-10T06:55:07.469Z,1016.54
2019-01-10T06:56:07.443Z,1016.54
2019-01-10T06:57:07.427Z,1016.58
2019-01-10T06:58:07.402Z,1016.60
2019-01-10T06:59:07.372Z,1016.66
2019-01-10T07:00:07.345Z,1016.66
2019-01-10T07:01:07.335Z,1016.69
2019-01-10T07:02:07.303Z,1016.68
2019-01-10T07:03:07.277Z,1016.70
2019-01-10T07:04:07.261Z,1016.66
2019-01-10T07:05:07.232Z,1016.70
2019-01-10T07:06:07.208Z,1016.70
2019-01-10T07:07:07.189Z,1016.76
2019-01-10T07:08:07.159Z,1016.74
2019-01-10T07:09:07.136Z,1016.75
2019-01-10T07:10:07.127Z,1016.70
2019-01-10T07:11:07.094Z,1016.78
2019-01-10T07:12:07.847Z,1016.73
2019-01-10T07:13:07.053Z,1016.75
2019-01-10T07:14:07.020Z,1016.75
2019-01-10T07:15:06.997Z,1016.79
2019-01-10T07:16:06.972Z,1016.75
2019-01-10T07:17:06.950Z,1016.80
2019-01-10T07:18:06.930Z,1016.77
2019-01-10T07:19:06.910Z,1016.80
2019-01-10T07:20:06.878Z,1016.79
2019-01-10T07:21:06.867Z,1016.88
2019-01-10T07:22:06.834Z,1016.83
2019-01-10T07:23:06.816Z,1016.88
2019-01-10T07:24:06.782Z,1016.87
2019-01-10T07:25:06.768Z,1016.88
2019-01-10T07:26:06.738Z,1016.88
2019-01-10T07:27:06.714Z,1016.89
2019-01-10T07:28:06.687Z,1016.90
2019-01-10T07:29:06.668Z,1016.93
2019-01-10T07:30:06.644Z,1016.96
2019-01-10T07:31:06.622Z,1016.98
2019-01-10T07:32:06.596Z,1017.00
2019-01-10T07:33:06.574Z,1016.97
2019-01-10T07:34:06.553Z,1017.03
2019-01-10T07:35:06.527Z,1017.01
2019-01-10T07:36:06.501Z,1017.01
2019-01-10T07:37:12.613Z,1017.03
2019-01-10T07:38:06.453Z,1017.03
2019-01-10T07:39:06.432Z,1017.04
2019-01-10T07:40:06.415Z,1017.07
2019-01-10T07:41:06.387Z,1017.08
2019-01-10T07:42:06.360Z,1017.06
2019-01-10T07:43:06.334Z,1017.02
2019-01-10T07:44:06.311Z,1017.08
2019-01-10T07:45:06.294Z,1017.02
2019-01-10T07:46:06.268Z,1017.12
2019-01-10T07:47:08.183Z,1017.12
2019-01-10T07:48:06.221Z,1017.14
2019-01-10T07:49:06.195Z,1017.16
2019-01-10T07:50:06.173Z,1017.17
2019-01-10T07:51:06.147Z,1017.16
2019-01-10T07:52:06.126Z,1017.16
2019-01-10T07:53:06.106Z,1017.16
2019-01-10T07:54:06.079Z,1017.12
2019-01-10T07:55:06.052Z,1017.20
2019-01-10T07:56:06.028Z,1017.16
2019-01-10T07:57:06.008Z,1017.20
2019-01-10T07:58:05.986Z,1017.24
2019-01-10T07:59:05.959Z,1017.23
2019-01-10T08:00:05.937Z,1017.25
2019-01-10T08:01:05.910Z,1017.26
2019-01-10T08:02:05.896Z,1017.25
2019-01-10T08:03:05.865Z,1017.26
2019-01-10T08:04:05.844Z,1017.32
2019-01-10T08:05:05.822Z,1017.26
2019-01-10T08:06:05.795Z,1017.27
2019-01-10T08:07:05.771Z,1017.29
2019-01-10T08:08:05.749Z,1017.31
2019-01-10T08:09:05.727Z,1017.30
2019-01-10T08:10:05.709Z,1017.29
2019-01-10T08:11:05.680Z,1017.36
2019-01-10T08:12:05.655Z,1017.34
2019-01-10T08:13:05.628Z,1017.39
2019-01-10T08:14:05.611Z,1017.42
2019-01-10T08:15:11.762Z,1017.42
2019-01-10T08:16:05.565Z,1017.40
2019-01-10T08:17:05.539Z,1017.47
2019-01-10T08:18:05.515Z,1017.49
2019-01-10T08:19:05.492Z,1017.53
2019-01-10T08:20:05.486Z,1017.50
2019-01-10T08:21:05.440Z,1017.56
2019-01-10T08:22:05.422Z,1017.55
2019-01-10T08:23:05.399Z,1017.63
2019-01-10T08:24:05.373Z,1017.58
2019-01-10T08:25:05.360Z,1017.61
2019-01-10T08:26:05.327Z,1017.62
2019-01-10T08:27:05.301Z,1017.61
2019-01-10T08:28:05.282Z,1017.64
2019-01-10T08:29:05.258Z,1017.70
2019-01-10T08:30:05.233Z,1017.69
2019-01-10T08:31:05.208Z,1017.70
2019-01-10T08:32:05.183Z,1017.75
2019-01-10T08:33:05.164Z,1017.71
2019-01-10T08:34:05.135Z,1017.74
2019-01-10T08:35:05.115Z,1017.74
2019-01-10T08:36:05.091Z,1017.75
2019-01-10T08:37:05.070Z,1017.79
2019-01-10T08:38:05.049Z,1017.74
2019-01-10T08:39:05.019Z,1017.79
2019-01-10T08:40:04.995Z,1017.81
2019-01-10T08:41:04.977Z,1017.76
2019-01-10T08:42:04.950Z,1017.75
2019-01-10T08:43:04.927Z,1017.79
2019-01-10T08:44:04.901Z,1017.84
2019-01-10T08:45:04.934Z,1017.82
2019-01-10T08:46:04.855Z,1017.80
2019-01-10T08:47:04.832Z,1017.82
2019-01-10T08:48:04.812Z,1017.85
2019-01-10T08:49:04.787Z,1017.85
2019-01-10T08:50:04.762Z,1017.81
2019-01-10T08:51:04.737Z,1017.79
2019-01-10T08:52:04.719Z,1017.85
2019-01-10T08:53:04.696Z,1017.84
2019-01-10T08:54:04.670Z,1017.86
2019-01-10T08:55:04.643Z,1017.87
2019-01-10T08:56:04.622Z,1017.88
2019-01-10T08:57:04.604Z,1017.93
2019-01-10T08:58:04.576Z,1017.89
2019-01-10T08:59:04.557Z,1017.96
2019-01-10T09:00:04.529Z,1017.98
2019-01-10T09:01:04.506Z,1017.95
2019-01-10T09:02:04.483Z,1017.95
2019-01-10T09:03:04.464Z,1017.88
2019-01-10T09:04:04.437Z,1017.94
2019-01-10T09:05:04.409Z,1017.99
2019-01-10T09:06:08.229Z,1017.98
2019-01-10T09:07:04.411Z,1017.99
2019-01-10T09:08:04.341Z,1017.98
2019-01-10T09:09:04.321Z,1017.98
2019-01-10T09:10:04.297Z,1018.01
2019-01-10T09:11:04.272Z,1017.99
2019-01-10T09:12:04.246Z,1018.05
2019-01-10T09:13:04.225Z,1018.04
2019-01-10T09:14:04.808Z,1018.05
2019-01-10T09:15:04.198Z,1018.05
2019-01-10T09:16:04.161Z,1018.10
2019-01-10T09:17:04.131Z,1018.11
2019-01-10T09:18:04.113Z,1018.12
2019-01-10T09:19:04.085Z,1018.11
2019-01-10T09:20:04.070Z,1018.11
2019-01-10T09:21:04.738Z,1018.15
2019-01-10T09:22:04.023Z,1018.17
2019-01-10T09:23:03.994Z,1018.14
2019-01-10T09:24:03.968Z,1018.15
2019-01-10T09:25:03.947Z,1018.16
2019-01-10T09:26:03.923Z,1018.21
2019-01-10T09:27:03.898Z,1018.19
2019-01-10T09:28:03.877Z,1018.25
2019-01-10T09:29:03.853Z,1018.26
2019-01-10T09:30:03.828Z,1018.30
2019-01-10T09:31:03.802Z,1018.29
2019-01-10T09:32:03.784Z,1018.30
2019-01-10T09:33:03.761Z,1018.30
2019-01-10T09:34:03.735Z,1018.29
2019-01-10T09:35:03.713Z,1018.34
2019-01-10T09:36:03.690Z,1018.32
2019-01-10T09:37:03.994Z,1018.38
2019-01-10T09:38:03.647Z,1018.29
2019-01-10T09:39:03.619Z,1018.36
2019-01-10T09:40:03.599Z,1018.33
2019-01-10T09:41:03.576Z,1018.38
2019-01-10T09:42:03.565Z,1018.40
2019-01-10T09:43:03.526Z,1018.35
2019-01-10T09:44:03.505Z,1018.42
2019-01-10T09:45:03.484Z,1018.43
2019-01-10T09:46:03.463Z,1018.50
2019-01-10T09:47:03.436Z,1018.49
2019-01-10T09:48:03.407Z,1018.60
2019-01-10T09:49:03.392Z,1018.59
2019-01-10T09:50:03.368Z,1018.57
2019-01-10T09:51:03.343Z,1018.60
2019-01-10T09:52:03.373Z,1018.63
2019-01-10T09:53:03.295Z,1018.64
2019-01-10T09:54:03.270Z,1018.57
2019-01-10T09:55:03.249Z,1018.53
2019-01-10T09:56:03.230Z,1018.59
2019-01-10T09:57:03.209Z,1018.58
2019-01-10T09:58:03.180Z,1018.55
2019-01-10T09:59:03.160Z,1018.57
2019-01-10T10:00:03.135Z,1018.56
2019-01-10T10:01:03.112Z,1018.56
2019-01-10T10:02:03.139Z,1018.60
2019-01-10T10:03:03.066Z,1018.69
2019-01-10T10:04:03.043Z,1018.72
2019-01-10T10:05:03.022Z,1018.72
2019-01-10T10:06:07.824Z,1018.73
2019-01-10T10:07:02.973Z,1018.70
2019-01-10T10:08:02.955Z,1018.68
2019-01-10T10:09:02.930Z,1018.65
2019-01-10T10:10:02.903Z,1018.62
2019-01-10T10:11:02.882Z,1018.70
2019-01-10T10:12:02.861Z,1018.67
2019-01-10T10:13:02.887Z,1018.81
2019-01-10T10:14:02.825Z,1018.83
2019-01-10T10:15:02.799Z,1018.86
2019-01-10T10:16:02.774Z,1018.89
2019-01-10T10:17:02.750Z,1018.81
2019-01-10T10:18:02.731Z,1018.70
2019-01-10T10:19:02.704Z,1018.70
2019-01-10T10:20:02.679Z,1018.71
2019-01-10T10:21:02.661Z,1018.74
2019-01-10T10:22:02.636Z,1018.89
2019-01-10T10:23:02.616Z,1018.71
2019-01-10T10:24:02.592Z,1018.69
2019-01-10T10:25:02.568Z,1018.70
2019-01-10T10:26:02.550Z,1018.71
2019-01-10T10:27:02.531Z,1018.74
2019-01-10T10:28:02.500Z,1018.69
2019-01-10T10:29:02.491Z,1018.66
2019-01-10T10:30:02.462Z,1018.67
2019-01-10T10:31:02.441Z,1018.63
2019-01-10T10:32:02.418Z,1018.64
2019-01-10T10:33:02.396Z,1018.63
2019-01-10T10:34:02.373Z,1018.62
2019-01-10T10:35:02.356Z,1018.63
2019-01-10T10:36:02.330Z,1018.61
2019-01-10T10:37:02.310Z,1018.62
2019-01-10T10:38:02.288Z,1018.64
2019-01-10T10:39:02.263Z,1018.60
2019-01-10T10:40:02.260Z,1018.57
2019-01-10T10:41:02.221Z,1018.64
2019-01-10T10:42:02.200Z,1018.63
2019-01-10T10:43:02.185Z,1018.73
2019-01-10T10:44:02.155Z,1018.66
2019-01-10T10:45:02.137Z,1018.61
2019-01-10T10:46:02.133Z,1018.65
2019-01-10T10:47:02.418Z,1018.66
2019-01-10T10:48:02.068Z,1018.63
2019-01-10T10:49:02.051Z,1018.62
2019-01-10T10:50:02.040Z,1018.72
2019-01-10T10:51:02.007Z,1018.68
2019-01-10T10:52:01.983Z,1018.72
2019-01-10T10:53:01.965Z,1018.67
2019-01-10T10:54:01.949Z,1018.87
2019-01-10T10:55:01.918Z,1018.84
2019-01-10T10:56:01.894Z,1018.67
2019-01-10T10:57:01.873Z,1018.64
2019-01-10T10:58:01.856Z,1018.67
2019-01-10T10:59:01.829Z,1018.65
2019-01-10T11:00:01.811Z,1018.71
2019-01-10T11:01:01.787Z,1018.63
2019-01-10T11:02:01.768Z,1018.65
2019-01-10T11:03:01.748Z,1018.77
2019-01-10T11:04:01.722Z,1018.66
2019-01-10T11:05:01.709Z,1018.70
2019-01-10T11:06:01.679Z,1018.67
2019-01-10T11:07:01.665Z,1018.62
2019-01-10T11:08:01.646Z,1018.71
2019-01-10T11:09:08.993Z,1018.80
2019-01-10T11:10:01.596Z,1018.78
2019-01-10T11:11:01.572Z,1018.67
2019-01-10T11:12:01.552Z,1018.76
2019-01-10T11:13:01.530Z,1018.72
2019-01-10T11:14:01.510Z,1018.66
2019-01-10T11:15:01.488Z,1018.58
2019-01-10T11:16:10.202Z,1018.60
2019-01-10T11:17:01.447Z,1018.62
2019-01-10T11:18:01.424Z,1018.58
2019-01-10T11:19:01.401Z,1018.53
2019-01-10T11:20:01.386Z,1018.56
2019-01-10T11:21:01.362Z,1018.52
2019-01-10T11:22:01.343Z,1018.55
2019-01-10T11:23:10.154Z,1018.52
2019-01-10T11:24:01.299Z,1018.51
2019-01-10T11:25:01.275Z,1018.49
2019-01-10T11:26:01.259Z,1018.46
2019-01-10T11:27:01.236Z,1018.44
2019-01-10T11:28:01.213Z,1018.50
2019-01-10T11:29:01.191Z,1018.49
2019-01-10T11:30:01.173Z,1018.43
2019-01-10T11:31:01.153Z,1018.48
2019-01-10T11:32:01.128Z,1018.48
2019-01-10T11:33:01.105Z,1018.49
2019-01-10T11:34:01.085Z,1018.47
2019-01-10T11:35:01.064Z,1018.45
2019-01-10T11:36:01.048Z,1018.49
2019-01-10T11:37:01.027Z,1018.50
2019-01-10T11:38:01.004Z,1018.48
2019-01-10T11:39:00.981Z,1018.48
2019-01-10T11:40:00.957Z,1018.44
2019-01-10T11:41:00.935Z,1018.42
2019-01-10T11:42:00.912Z,1018.49
2019-01-10T11:43:00.895Z,1018.51
2019-01-10T11:44:00.871Z,1018.50
2019-01-10T11:45:00.851Z,1018.49
2019-01-10T11:46:00.827Z,1018.48
2019-01-10T11:47:00.803Z,1018.44
2019-01-10T11:48:00.779Z,1018.49
2019-01-10T11:49:00.762Z,1018.44
2019-01-10T11:50:00.749Z,1018.43
2019-01-10T11:51:00.727Z,1018.47
2019-01-10T11:52:00.699Z,1018.47
2019-01-10T11:53:00.675Z,1018.49
2019-01-10T11:54:00.654Z,1018.46
2019-01-10T11:55:00.634Z,1018.40
2019-01-10T11:56:00.617Z,1018.35
2019-01-10T11:57:00.588Z,1018.41
2019-01-10T11:58:00.565Z,1018.39
2019-01-10T11:59:00.547Z,1018.37
2019-01-10T12:00:00.525Z,1018.41
2019-01-10T12:01:00.501Z,1018.37
2019-01-10T12:02:00.474Z,1018.37
2019-01-10T12:03:00.453Z,1018.32
2019-01-10T12:04:00.432Z,1018.33
2019-01-10T12:05:00.487Z,1018.30